Pagina principale
METAR-TAF:

METAR-TAF

Aeroporti :

Oxford, Inghilterra

latitudine: 51-50-13N, longitudine: 1-19-12W, altezza: 82 m

Osservazione

Il bollettino è stato emesso 18 minuti fa, alle 08:50 UTC
Vento 7 kt da ovest/nord-ovest, variando fra ovest/sud-ovest e nord/nord-ovest
Temperature 15°C
Umidità 72%
Pressione 1008 hPa
Visibilità 10 km o più
Poco nuvoloso ad un'altezza di 2000 ft

METAR: EGTK 070850Z 29007KT 250V340 9999 FEW020 15/10 Q1008

Ora: 10:08 (09:08 UTC)

Previsione

Il bollettino è stato emesso 1 ora e 15 minuti fa, alle 07:53 UTC
Previsione valida dal 07 alle 09 UTC al 07 alle 18 UTC
Vento 7 kt da ovest
Visibilità 10 km o più
Nubi sparse ad un'altezza di 2500 ft
Temporaneamente
dal 07 alle 11 UTC al 07 alle 17 UTC
Visibilità: 8000 m
rovesci di pioggia
Probabilità 30% :
Temporaneamente
dal 07 alle 11 UTC al 07 alle 17 UTC
Nuvoloso ad un'altezza di 1400 ft

TAF: EGTK 070753Z 0709/0718 28007KT 9999 SCT025 TEMPO 0711/0717 8000 SHRA PROB30 TEMPO 0711/0717 BKN014

Osservazioni e previsioni meteorologiche di più di 4000 aeroporti (messaggi METAR e TAF).

Le stazioni disponibili sono rappresentate dai dischi gialli e rossi sulla carta.

Puntare il mouse per vedere il nome della stazione.

Clicca sopra per visualizzare le osservazioni e previsioni meteorologiche.

Per cambiare la mappa : fare clic sui pulsanti verdi con una croce nera per ingrandire, il pulsante verde con un trattino per diminuire, o sulla freccia verde per le mappe adiacenti.


METAR-TAF: